createdAt,value
2023-02-18T00:00:34.271Z,8.75
2023-02-18T00:03:26.645Z,8.72
2023-02-18T00:05:59.436Z,8.70
2023-02-18T00:08:31.728Z,8.68
2023-02-18T00:11:06.113Z,8.65
2023-02-18T00:13:40.100Z,8.63
2023-02-18T00:16:14.105Z,8.61
2023-02-18T00:18:46.510Z,8.61
2023-02-18T00:21:19.356Z,8.59
2023-02-18T00:23:51.626Z,8.59
2023-02-18T00:26:25.882Z,8.58
2023-02-18T00:28:58.537Z,8.52
2023-02-18T00:31:34.026Z,8.47
2023-02-18T00:34:07.682Z,8.41
2023-02-18T00:36:41.595Z,8.35
2023-02-18T00:39:14.631Z,8.31
2023-02-18T00:41:47.278Z,8.27
2023-02-18T00:44:20.711Z,8.23
2023-02-18T00:46:53.613Z,8.17
2023-02-18T00:49:28.914Z,8.11
2023-02-18T00:52:02.228Z,8.03
2023-02-18T00:54:34.555Z,7.95
2023-02-18T00:57:07.367Z,7.88
2023-02-18T00:59:39.954Z,7.84
2023-02-18T01:02:12.270Z,7.79
2023-02-18T01:04:44.559Z,7.73
2023-02-18T01:07:17.294Z,7.68
2023-02-18T01:09:52.417Z,7.62
2023-02-18T01:12:25.567Z,7.56
2023-02-18T01:14:58.002Z,7.53
2023-02-18T01:17:31.041Z,7.50
2023-02-18T01:20:03.427Z,7.46
2023-02-18T01:22:36.556Z,7.43
2023-02-18T01:25:14.238Z,7.38
2023-02-18T01:27:46.582Z,7.36
2023-02-18T01:30:22.428Z,7.32
2023-02-18T01:32:56.267Z,7.28
2023-02-18T01:35:31.658Z,7.25
2023-02-18T01:38:05.661Z,7.23
2023-02-18T01:40:47.190Z,7.24
2023-02-18T01:43:22.415Z,7.24
2023-02-18T01:46:07.922Z,7.19
2023-02-18T01:48:46.729Z,7.16
2023-02-18T01:51:27.576Z,7.16
2023-02-18T01:54:04.500Z,7.13
2023-02-18T01:56:43.530Z,7.10
2023-02-18T01:59:23.383Z,7.07
2023-02-18T02:01:59.607Z,7.04
2023-02-18T02:04:36.885Z,7.02
2023-02-18T02:07:10.207Z,6.99
2023-02-18T02:09:46.542Z,6.96
2023-02-18T02:12:34.795Z,6.91
2023-02-18T02:15:42.586Z,6.88
2023-02-18T02:18:28.868Z,6.86
2023-02-18T02:21:43.624Z,6.84
2023-02-18T02:24:35.225Z,6.80
2023-02-18T02:27:26.336Z,6.73
2023-02-18T02:30:36.792Z,6.71
2023-02-18T02:33:42.132Z,6.70
2023-02-18T02:36:18.475Z,6.68
2023-02-18T02:39:03.950Z,6.66
2023-02-18T02:41:52.536Z,6.62
2023-02-18T02:44:34.700Z,6.61
2023-02-18T02:47:16.896Z,6.57
2023-02-18T02:49:55.116Z,6.53
2023-02-18T02:52:33.765Z,6.48
2023-02-18T02:55:10.907Z,6.46
2023-02-18T02:57:56.977Z,6.44
2023-02-18T03:00:47.505Z,6.44
2023-02-18T03:03:39.854Z,6.39
2023-02-18T03:06:37.822Z,6.35
2023-02-18T03:09:24.982Z,6.32
2023-02-18T03:12:04.378Z,6.29
2023-02-18T03:14:48.608Z,6.25
2023-02-18T03:17:29.166Z,6.22
2023-02-18T03:20:09.735Z,6.19
2023-02-18T03:22:43.724Z,6.16
2023-02-18T03:25:20.229Z,6.14
2023-02-18T03:27:57.831Z,6.11
2023-02-18T03:30:34.939Z,6.06
2023-02-18T03:33:15.676Z,6.03
2023-02-18T03:35:51.198Z,6.03
2023-02-18T03:38:27.384Z,6.00
2023-02-18T03:41:03.092Z,5.98
2023-02-18T03:43:35.620Z,5.93
2023-02-18T03:46:09.336Z,5.92
2023-02-18T03:48:41.955Z,5.92
2023-02-18T03:51:15.324Z,5.92
2023-02-18T03:53:48.397Z,5.90
2023-02-18T03:56:21.762Z,5.88
2023-02-18T03:58:54.416Z,5.87
2023-02-18T04:01:29.957Z,5.83
2023-02-18T04:04:07.948Z,5.77
2023-02-18T04:06:40.197Z,5.76
2023-02-18T04:09:13.159Z,5.75
2023-02-18T04:11:45.778Z,5.73
2023-02-18T04:14:18.108Z,5.71
2023-02-18T04:16:50.429Z,5.71
2023-02-18T04:19:22.957Z,5.72
2023-02-18T04:21:55.421Z,5.70
2023-02-18T04:24:28.100Z,5.67
2023-02-18T04:27:02.033Z,5.63
2023-02-18T04:29:34.233Z,5.62
2023-02-18T04:32:08.488Z,5.61
2023-02-18T04:34:40.798Z,5.57
2023-02-18T04:37:14.401Z,5.55
2023-02-18T04:39:46.726Z,5.54
2023-02-18T04:42:19.359Z,5.54
2023-02-18T04:44:51.627Z,5.52
2023-02-18T04:47:24.049Z,5.49
2023-02-18T04:49:56.595Z,5.48
2023-02-18T04:52:29.042Z,5.42
2023-02-18T04:55:03.780Z,5.40
2023-02-18T04:57:36.242Z,5.40
2023-02-18T05:00:15.301Z,5.37
2023-02-18T05:02:51.451Z,5.36
2023-02-18T05:05:23.856Z,5.37
2023-02-18T05:07:56.423Z,5.34
2023-02-18T05:10:28.770Z,5.33
2023-02-18T05:13:01.132Z,5.31
2023-02-18T05:15:36.193Z,5.30
2023-02-18T05:18:08.765Z,5.27
2023-02-18T05:20:41.128Z,5.24
2023-02-18T05:23:13.575Z,5.22
2023-02-18T05:25:45.877Z,5.22
2023-02-18T05:28:19.484Z,5.25
2023-02-18T05:30:55.131Z,5.23
2023-02-18T05:33:28.581Z,5.20
2023-02-18T05:36:03.188Z,5.18
2023-02-18T05:38:36.796Z,5.17
2023-02-18T05:41:13.179Z,5.15
2023-02-18T05:44:07.170Z,5.14
2023-02-18T05:46:42.205Z,5.12
2023-02-18T05:49:15.009Z,5.14
2023-02-18T05:51:50.005Z,5.14
2023-02-18T05:54:25.258Z,5.14
2023-02-18T05:56:57.852Z,5.15
2023-02-18T05:59:30.466Z,5.17
2023-02-18T06:02:03.153Z,5.18
2023-02-18T06:04:35.521Z,5.20
2023-02-18T06:07:08.315Z,5.22
2023-02-18T06:09:40.623Z,5.23
2023-02-18T06:12:13.062Z,5.27
2023-02-18T06:14:45.694Z,5.31
2023-02-18T06:17:24.418Z,5.33
2023-02-18T06:20:05.000Z,5.36
2023-02-18T06:22:35.774Z,5.39
2023-02-18T06:25:09.838Z,5.41
2023-02-18T06:27:45.032Z,5.43
2023-02-18T06:30:23.677Z,5.44
2023-02-18T06:33:08.352Z,5.44
2023-02-18T06:35:42.003Z,5.44
2023-02-18T06:38:17.240Z,5.44
2023-02-18T06:40:55.368Z,5.48
2023-02-18T06:43:31.320Z,5.52
2023-02-18T06:46:05.875Z,5.56
2023-02-18T06:48:42.058Z,5.60
2023-02-18T06:51:14.530Z,5.65
2023-02-18T06:53:52.284Z,5.69
2023-02-18T06:56:28.666Z,5.73
2023-02-18T06:59:05.792Z,5.76
2023-02-18T07:01:38.308Z,5.78
2023-02-18T07:04:13.356Z,5.80
2023-02-18T07:06:48.250Z,5.80
2023-02-18T07:09:20.557Z,5.78
2023-02-18T07:11:57.998Z,5.78
2023-02-18T07:14:33.529Z,5.78
2023-02-18T07:17:08.036Z,5.79
2023-02-18T07:19:40.561Z,5.80
2023-02-18T07:22:17.065Z,5.82
2023-02-18T07:24:56.295Z,5.85
2023-02-18T07:27:41.445Z,5.88
2023-02-18T07:30:17.295Z,5.91
2023-02-18T07:32:50.282Z,5.94
2023-02-18T07:35:25.484Z,5.97
2023-02-18T07:37:58.811Z,6.01
2023-02-18T07:40:36.791Z,6.05
2023-02-18T07:43:13.994Z,6.08
2023-02-18T07:45:49.465Z,6.13
2023-02-18T07:48:21.830Z,6.17
2023-02-18T07:50:55.445Z,6.20
2023-02-18T07:53:29.408Z,6.22
2023-02-18T07:56:02.984Z,6.26
2023-02-18T07:58:40.304Z,6.30
2023-02-18T08:01:17.283Z,6.34
2023-02-18T08:03:51.538Z,6.37
2023-02-18T08:06:28.460Z,6.41
2023-02-18T08:09:06.064Z,6.44
2023-02-18T08:11:47.275Z,6.45
2023-02-18T08:14:19.616Z,6.48
2023-02-18T08:16:55.263Z,6.51
2023-02-18T08:19:30.418Z,6.54
2023-02-18T08:22:10.019Z,6.56
2023-02-18T08:24:45.845Z,6.62
2023-02-18T08:27:19.440Z,6.65
2023-02-18T08:29:55.280Z,6.69
2023-02-18T08:32:30.528Z,6.71
2023-02-18T08:35:09.325Z,6.75
2023-02-18T08:37:52.931Z,6.79
2023-02-18T08:40:27.163Z,6.84
2023-02-18T08:42:59.429Z,6.92
2023-02-18T08:45:38.215Z,6.99
2023-02-18T08:48:19.261Z,7.03
2023-02-18T08:50:55.466Z,7.07
2023-02-18T08:53:31.390Z,7.10
2023-02-18T08:56:06.614Z,7.14
2023-02-18T08:58:38.985Z,7.18
2023-02-18T09:01:14.535Z,7.20
2023-02-18T09:03:48.484Z,7.21
2023-02-18T09:06:21.110Z,7.17
2023-02-18T09:08:57.545Z,7.15
2023-02-18T09:11:30.544Z,7.15
2023-02-18T09:14:04.570Z,7.17
2023-02-18T09:17:33.625Z,7.17
2023-02-18T09:20:08.730Z,7.17
2023-02-18T09:22:41.692Z,7.16
2023-02-18T09:25:15.349Z,7.15
2023-02-18T09:27:47.693Z,7.14
2023-02-18T09:30:20.575Z,7.12
2023-02-18T09:32:53.920Z,7.12
2023-02-18T09:35:26.215Z,7.13
2023-02-18T09:37:58.508Z,7.15
2023-02-18T09:40:35.991Z,7.21
2023-02-18T09:43:08.725Z,7.29
2023-02-18T09:45:41.137Z,7.37
2023-02-18T09:48:14.190Z,7.45
2023-02-18T09:50:54.025Z,7.50
2023-02-18T09:53:27.320Z,7.50
2023-02-18T09:56:03.227Z,7.52
2023-02-18T09:58:39.014Z,7.57
2023-02-18T10:01:33.121Z,7.62
2023-02-18T10:04:11.799Z,7.65
2023-02-18T10:06:46.550Z,7.64
2023-02-18T10:09:23.751Z,7.67
2023-02-18T10:12:01.705Z,7.73
2023-02-18T10:14:36.042Z,7.80
2023-02-18T10:17:12.244Z,7.88
2023-02-18T10:19:47.521Z,8.01
2023-02-18T10:22:21.656Z,8.17
2023-02-18T10:24:57.053Z,8.29
2023-02-18T10:27:32.158Z,8.39
2023-02-18T10:30:21.262Z,8.41
2023-02-18T10:33:24.795Z,8.39
2023-02-18T10:36:04.042Z,8.29
2023-02-18T10:38:47.751Z,8.22
2023-02-18T10:41:28.355Z,8.18
2023-02-18T10:44:05.015Z,8.15
2023-02-18T10:46:46.634Z,8.18
2023-02-18T10:49:36.276Z,8.17
2023-02-18T10:52:15.641Z,8.13
2023-02-18T10:55:00.720Z,8.10
2023-02-18T10:57:34.023Z,8.05
2023-02-18T11:00:18.966Z,8.00
2023-02-18T11:03:26.423Z,7.95
2023-02-18T11:06:00.208Z,7.87
2023-02-18T11:08:43.874Z,7.81
2023-02-18T11:11:22.312Z,7.71
2023-02-18T11:13:59.252Z,7.50
2023-02-18T11:16:42.232Z,7.29
2023-02-18T11:19:34.843Z,7.11
2023-02-18T11:22:20.058Z,6.97
2023-02-18T11:24:57.741Z,6.83
2023-02-18T11:27:40.185Z,6.68
2023-02-18T11:30:22.776Z,6.58
2023-02-18T11:33:00.406Z,6.52
2023-02-18T11:35:35.393Z,6.48
2023-02-18T11:38:24.536Z,6.44
2023-02-18T11:41:05.643Z,6.44
2023-02-18T11:43:43.065Z,6.45
2023-02-18T11:46:18.041Z,6.42
2023-02-18T11:48:51.440Z,6.38
2023-02-18T11:51:29.618Z,6.37
2023-02-18T11:57:40.055Z,6.28
2023-02-18T12:00:22.136Z,6.29
2023-02-18T12:02:57.910Z,6.33
2023-02-18T12:05:32.522Z,6.37
2023-02-18T12:08:12.283Z,6.36
2023-02-18T12:10:48.964Z,6.37
2023-02-18T12:13:35.637Z,6.38
2023-02-18T12:16:19.971Z,6.43
2023-02-18T12:19:12.583Z,6.46
2023-02-18T12:21:59.872Z,6.45
2023-02-18T12:24:44.239Z,6.44
2023-02-18T12:27:24.235Z,6.46
2023-02-18T12:30:23.486Z,6.49
2023-02-18T12:33:09.729Z,6.52
2023-02-18T12:36:01.948Z,6.52
2023-02-18T12:39:02.077Z,6.56
2023-02-18T12:41:49.799Z,6.60
2023-02-18T12:44:35.195Z,6.57
2023-02-18T12:47:37.908Z,6.53
2023-02-18T12:50:40.244Z,6.49
2023-02-18T12:53:35.916Z,6.48
2023-02-18T12:56:32.947Z,6.51
2023-02-18T12:59:17.408Z,6.50
2023-02-18T13:02:03.384Z,6.48
2023-02-18T13:04:48.474Z,6.40
2023-02-18T13:07:51.103Z,6.37
2023-02-18T13:10:38.141Z,6.37
2023-02-18T13:13:17.607Z,6.37
2023-02-18T13:15:55.294Z,6.37
2023-02-18T13:18:33.967Z,6.37
2023-02-18T13:21:16.241Z,6.36
2023-02-18T13:23:58.707Z,6.31
2023-02-18T13:26:33.834Z,6.28
2023-02-18T13:29:24.105Z,6.26
2023-02-18T13:32:08.070Z,6.24
2023-02-18T13:34:49.810Z,6.21
2023-02-18T13:37:29.084Z,6.18
2023-02-18T13:40:02.593Z,6.14
2023-02-18T13:42:39.551Z,6.15
2023-02-18T13:45:28.327Z,6.22
2023-02-18T13:48:02.051Z,6.26
2023-02-18T13:50:43.220Z,6.24
2023-02-18T13:53:33.386Z,6.19
2023-02-18T13:56:11.908Z,6.15
2023-02-18T13:58:50.660Z,6.18
2023-02-18T14:01:36.877Z,6.13
2023-02-18T14:04:46.055Z,6.02
2023-02-18T14:07:30.162Z,5.98
2023-02-18T14:10:05.364Z,5.95
2023-02-18T14:12:44.757Z,5.95
2023-02-18T14:15:52.542Z,5.93
2023-02-18T14:18:32.122Z,5.90
2023-02-18T14:21:36.809Z,5.86
2023-02-18T14:24:11.292Z,5.83
2023-02-18T14:26:51.943Z,5.80
2023-02-18T14:29:31.684Z,5.78
